Time;durP1;ratioP1;P1;durP2;ratioP2;P2;SDS_P1;SDS_P2;PMS_P1;PMS_P2;Temp;Humidity;BMP_temperature;BMP_pressure;BME280_temperature;BME280_humidity;BME280_pressure;Samples;Min_cycle;Max_cycle;Signal;HPM_P1;HPM_P2
2020/12/13 00:02:22;;;;;;;31.77;9.07;;;;;;;7.96;67.83;98626.59;5106639;27;20027;-75
2020/12/13 00:04:47;;;;;;;16.02;7.45;;;;;;;7.54;68.29;98628.00;5103365;28;20130;-76
2020/12/13 00:07:14;;;;;;;23.15;7.53;;;;;;;7.72;68.33;98620.00;5115347;27;20383;-76
2020/12/13 00:09:40;;;;;;;14.70;6.18;;;;;;;7.29;68.73;98607.50;5124181;27;20465;-75
2020/12/13 00:12:07;;;;;;;18.02;7.03;;;;;;;7.58;68.83;98612.34;5119197;27;20039;-75
2020/12/13 00:14:33;;;;;;;15.30;6.85;;;;;;;7.88;67.91;98608.47;5115505;27;20038;-76
2020/12/13 00:17:00;;;;;;;16.02;7.45;;;;;;;7.76;67.97;98606.06;5119249;27;20038;-76
2020/12/13 00:19:26;;;;;;;23.38;8.13;;;;;;;7.70;68.24;98611.34;5108834;27;20039;-77
2020/12/13 00:21:54;;;;;;;26.85;6.63;;;;;;;7.45;69.14;98623.78;5124485;27;20026;-76
2020/12/13 00:24:21;;;;;;;15.18;6.10;;;;;;;7.50;69.01;98621.13;5120901;27;20050;-75
2020/12/13 00:26:50;;;;;;;17.15;6.15;;;;;;;7.56;69.60;98627.13;5100207;27;20035;-75
2020/12/13 00:29:16;;;;;;;25.17;5.97;;;;;;;7.31;69.83;98625.69;5119784;27;20043;-77
2020/12/13 00:31:42;;;;;;;14.05;6.03;;;;;;;7.65;68.87;98616.59;5122248;28;20040;-77
2020/12/13 00:34:08;;;;;;;10.95;4.53;;;;;;;7.49;69.33;98619.41;5107732;28;20038;-77
2020/12/13 00:36:36;;;;;;;14.23;5.43;;;;;;;7.92;67.89;98622.28;5118565;27;20038;-79
2020/12/13 00:39:03;;;;;;;16.05;4.50;;;;;;;7.81;67.73;98614.66;5100486;28;20106;-75
2020/12/13 00:41:30;;;;;;;15.20;5.40;;;;;;;7.70;68.37;98609.59;5121709;28;20474;-77
2020/12/13 00:43:55;;;;;;;15.50;6.88;;;;;;;7.52;69.26;98599.44;5107332;28;20037;-77
2020/12/13 00:46:24;;;;;;;24.02;7.65;;;;;;;7.70;68.33;98594.00;5106137;28;20118;-77
2020/12/13 00:48:50;;;;;;;18.75;6.85;;;;;;;7.62;68.56;98601.06;5122368;27;20039;-77
2020/12/13 00:51:26;;;;;;;20.23;7.97;;;;;;;7.90;67.50;98596.31;5120772;28;20039;-76
2020/12/13 00:53:52;;;;;;;20.00;7.88;;;;;;;8.07;67.06;98606.47;5118427;27;20083;-76
2020/12/13 00:56:18;;;;;;;18.25;6.70;;;;;;;7.78;67.63;98606.88;5128374;27;20054;-77
2020/12/13 00:58:45;;;;;;;19.95;7.25;;;;;;;8.11;66.46;98596.00;5105005;27;20095;-76
2020/12/13 01:01:11;;;;;;;17.25;6.90;;;;;;;8.11;66.29;98595.13;5129994;27;20026;-77
2020/12/13 01:03:37;;;;;;;14.38;7.20;;;;;;;7.80;67.35;98597.34;5130280;27;20650;-75
2020/12/13 01:06:03;;;;;;;16.45;6.72;;;;;;;8.17;66.27;98595.03;5102695;27;20055;-75
2020/12/13 01:08:29;;;;;;;25.23;7.32;;;;;;;7.78;67.18;98594.75;5125148;27;20027;-76
2020/12/13 01:10:55;;;;;;;14.35;6.57;;;;;;;8.00;66.68;98594.47;5105134;27;20188;-76
2020/12/13 01:13:21;;;;;;;15.38;6.03;;;;;;;7.72;67.29;98610.41;5123885;27;20387;-76
2020/12/13 01:15:50;;;;;;;15.90;6.38;;;;;;;8.04;66.04;98604.78;5103239;27;20038;-76
2020/12/13 01:18:16;;;;;;;14.52;5.63;;;;;;;8.18;65.68;98617.59;5107647;27;20062;-76
2020/12/13 01:20:42;;;;;;;26.67;6.80;;;;;;;8.14;65.44;98624.59;5128581;27;20435;-76
2020/12/13 01:23:08;;;;;;;15.50;5.38;;;;;;;8.05;65.45;98616.06;5109179;27;20035;-76
2020/12/13 01:25:34;;;;;;;16.30;4.72;;;;;;;8.01;65.28;98617.81;5123965;27;20027;-76
2020/12/13 01:28:00;;;;;;;15.45;6.30;;;;;;;8.15;64.40;98615.88;5130781;27;20035;-77
2020/12/13 01:30:26;;;;;;;17.98;5.45;;;;;;;8.23;64.04;98605.38;5129706;27;20057;-77
2020/12/13 01:32:52;;;;;;;16.25;5.45;;;;;;;8.10;63.88;98625.53;5109756;27;20035;-77
2020/12/13 01:35:18;;;;;;;19.20;4.47;;;;;;;8.32;63.64;98626.94;5110763;27;20034;-77
2020/12/13 01:37:44;;;;;;;13.13;3.72;;;;;;;8.27;63.71;98623.50;5107735;27;20045;-77
2020/12/13 01:40:11;;;;;;;16.98;4.60;;;;;;;8.03;64.41;98634.28;5122449;27;20105;-77
2020/12/13 01:42:38;;;;;;;14.70;4.68;;;;;;;8.05;65.25;98635.13;5129424;27;20050;-77
2020/12/13 01:45:10;;;;;;;15.90;5.28;;;;;;;7.95;65.29;98633.53;5125581;27;20031;-77
2020/12/13 01:47:37;;;;;;;19.58;6.63;;;;;;;7.57;67.69;98640.97;5128582;27;20039;-77
2020/12/13 01:50:08;;;;;;;19.60;7.93;;;;;;;7.69;67.33;98639.06;5110315;27;20785;-77
2020/12/13 01:52:44;;;;;;;20.80;10.45;;;;;;;7.52;68.34;98634.97;5121012;27;20152;-76
2020/12/13 01:55:10;;;;;;;24.55;10.98;;;;;;;7.58;67.65;98627.94;5124852;27;20453;-76
2020/12/13 01:57:39;;;;;;;29.50;13.07;;;;;;;7.53;67.91;98624.53;5119711;27;20035;-77
2020/12/13 02:00:18;;;;;;;26.67;13.35;;;;;;;7.69;67.49;98617.41;5086538;27;20068;-76
2020/12/13 02:02:51;;;;;;;29.05;13.63;;;;;;;7.75;67.41;98617.34;5121951;27;20095;-78
2020/12/13 02:05:20;;;;;;;32.33;13.75;;;;;;;7.84;66.42;98625.00;5107190;27;20109;-77
2020/12/13 02:07:47;;;;;;;38.50;15.15;;;;;;;7.77;65.73;98608.63;5121852;27;20036;-78
2020/12/13 02:10:13;;;;;;;25.23;13.77;;;;;;;8.04;65.33;98622.13;5103184;27;20063;-78
2020/12/13 02:12:40;;;;;;;27.90;13.32;;;;;;;8.15;64.91;98625.44;5118572;27;20098;-77
2020/12/13 02:15:07;;;;;;;25.75;14.00;;;;;;;7.68;66.05;98624.34;5104087;27;20154;-77
2020/12/13 02:17:34;;;;;;;29.85;14.75;;;;;;;7.64;66.58;98622.66;5109868;27;20046;-76
2020/12/13 02:20:11;;;;;;;33.83;14.43;;;;;;;7.83;65.91;98625.88;5123133;27;20536;-77
2020/12/13 02:22:49;;;;;;;37.17;13.52;;;;;;;7.70;66.25;98629.53;5109117;27;20058;-76
2020/12/13 02:25:24;;;;;;;25.23;12.73;;;;;;;7.72;65.67;98635.59;5125998;27;20490;-78
2020/12/13 02:27:53;;;;;;;23.17;11.95;;;;;;;7.78;65.58;98630.28;5124343;27;20027;-77
2020/12/13 02:30:19;;;;;;;21.35;11.45;;;;;;;7.70;65.62;98638.19;5126103;27;20449;-77
2020/12/13 02:32:45;;;;;;;34.00;11.77;;;;;;;7.73;66.34;98632.94;5121117;27;20498;-77
2020/12/13 02:35:11;;;;;;;24.98;11.63;;;;;;;7.93;65.05;98632.69;5125274;27;20039;-76
2020/12/13 02:37:40;;;;;;;24.83;9.75;;;;;;;7.77;65.89;98636.38;5120394;27;20027;-76
2020/12/13 02:40:06;;;;;;;19.38;10.32;;;;;;;7.60;66.21;98635.72;5105885;27;20037;-77
2020/12/13 02:42:34;;;;;;;23.60;11.63;;;;;;;7.26;68.25;98630.94;5117795;27;20059;-76
2020/12/13 02:45:01;;;;;;;23.83;11.07;;;;;;;7.58;66.98;98624.50;5127842;27;20064;-77
2020/12/13 02:47:27;;;;;;;32.42;10.77;;;;;;;7.63;66.60;98628.75;5109658;27;20114;-76
2020/12/13 02:49:53;;;;;;;20.65;10.10;;;;;;;7.61;66.69;98630.53;5104521;27;20039;-77
2020/12/13 02:52:18;;;;;;;22.10;9.48;;;;;;;7.27;67.39;98622.25;5122811;27;20034;-77
2020/12/13 02:54:44;;;;;;;21.85;8.93;;;;;;;7.32;67.68;98630.00;5119129;27;20038;-76
2020/12/13 02:57:11;;;;;;;21.17;9.25;;;;;;;7.76;66.59;98619.06;5126616;27;20311;-78
2020/12/13 02:59:36;;;;;;;16.30;7.93;;;;;;;7.60;66.78;98623.59;5102087;27;20119;-76
2020/12/13 03:02:02;;;;;;;22.08;8.23;;;;;;;7.75;66.50;98620.81;5118543;27;20595;-77
2020/12/13 03:04:28;;;;;;;19.40;6.82;;;;;;;7.82;65.87;98617.22;5082210;28;20059;-75
2020/12/13 03:06:57;;;;;;;20.35;6.25;;;;;;;7.94;64.95;98618.81;5087691;28;21561;-77
2020/12/13 03:09:24;;;;;;;19.10;5.57;;;;;;;7.86;64.98;98608.50;5085665;28;20506;-78
2020/12/13 03:11:49;;;;;;;13.38;5.15;;;;;;;8.29;63.88;98602.69;5084817;28;20070;-76
2020/12/13 03:14:15;;;;;;;17.92;4.85;;;;;;;8.01;64.34;98599.63;5085852;28;20066;-76
2020/12/13 03:16:41;;;;;;;15.60;5.45;;;;;;;8.21;63.18;98596.72;5064046;28;20048;-77
2020/12/13 03:19:06;;;;;;;12.55;5.18;;;;;;;8.33;62.94;98599.19;5098156;27;20043;-75
2020/12/13 03:21:32;;;;;;;16.90;4.85;;;;;;;8.34;62.62;98600.03;5069399;28;20046;-76
2020/12/13 03:23:58;;;;;;;16.05;7.80;;;;;;;8.05;63.70;98596.13;5105494;27;20035;-77
2020/12/13 03:26:24;;;;;;;13.10;7.40;;;;;;;8.11;63.67;98587.34;5070009;28;20039;-76
2020/12/13 03:28:51;;;;;;;22.20;7.65;;;;;;;8.25;62.72;98577.56;5071201;28;20043;-76
2020/12/13 03:31:17;;;;;;;22.30;9.60;;;;;;;7.84;64.05;98583.41;5087311;28;20221;-77
2020/12/13 03:33:42;;;;;;;25.80;12.32;;;;;;;7.12;66.79;98580.88;5085355;28;20039;-78
2020/12/13 03:36:09;;;;;;;21.58;12.98;;;;;;;7.11;66.88;98573.09;5082562;28;20402;-76
2020/12/13 03:38:42;;;;;;;28.80;13.65;;;;;;;7.20;65.84;98560.84;5071494;28;20047;-76
2020/12/13 03:41:08;;;;;;;27.33;13.85;;;;;;;7.03;66.14;98556.75;5084680;27;20039;-75
2020/12/13 03:43:33;;;;;;;33.92;14.60;;;;;;;7.02;66.55;98558.47;5123815;27;20088;-74
2020/12/13 03:45:59;;;;;;;32.47;14.15;;;;;;;7.23;65.61;98565.16;5105133;27;20375;-76
2020/12/13 03:48:26;;;;;;;27.20;15.32;;;;;;;7.16;65.36;98559.19;5121714;27;20491;-76
2020/12/13 03:50:51;;;;;;;35.22;15.43;;;;;;;7.38;64.69;98557.19;5122011;27;20038;-77
2020/12/13 03:53:18;;;;;;;31.20;14.52;;;;;;;6.94;66.09;98562.91;5122106;27;20104;-78
2020/12/13 03:55:44;;;;;;;31.58;15.02;;;;;;;6.87;66.58;98562.09;5121414;27;20428;-76
2020/12/13 03:58:13;;;;;;;34.67;16.95;;;;;;;6.83;66.76;98562.16;5108788;27;20043;-77
2020/12/13 04:00:39;;;;;;;32.40;15.82;;;;;;;6.96;65.99;98561.13;5123832;27;20031;-76
2020/12/13 04:03:05;;;;;;;36.67;15.05;;;;;;;6.97;65.99;98571.53;5116798;27;20034;-76
2020/12/13 04:05:33;;;;;;;38.83;16.00;;;;;;;6.97;66.15;98562.88;5118819;27;20038;-76
2020/12/13 04:07:59;;;;;;;39.53;18.58;;;;;;;7.00;65.99;98562.84;5123029;27;20068;-77
2020/12/13 04:10:25;;;;;;;36.25;17.20;;;;;;;7.10;65.62;98556.66;5117970;27;20035;-77
2020/12/13 04:12:52;;;;;;;34.83;18.35;;;;;;;7.40;64.40;98556.28;5114199;27;20031;-76
2020/12/13 04:15:18;;;;;;;36.92;17.25;;;;;;;6.83;65.68;98556.97;5107140;27;20096;-77
2020/12/13 04:17:47;;;;;;;39.28;18.95;;;;;;;7.04;65.17;98554.16;5104112;28;20034;-77
2020/12/13 04:20:13;;;;;;;37.63;17.25;;;;;;;6.71;65.55;98545.00;5107021;28;20043;-78
2020/12/13 04:22:39;;;;;;;30.15;15.18;;;;;;;6.95;64.81;98543.88;5122287;27;20038;-79
2020/12/13 04:25:05;;;;;;;29.85;15.50;;;;;;;6.91;65.08;98548.22;5123187;27;20403;-76
2020/12/13 04:27:31;;;;;;;37.70;19.23;;;;;;;7.25;64.32;98550.41;5099938;27;20042;-76
2020/12/13 04:29:57;;;;;;;40.17;19.45;;;;;;;7.15;65.07;98546.19;5124728;27;20031;-75
2020/12/13 04:32:24;;;;;;;46.40;19.30;;;;;;;7.45;64.01;98545.81;5121066;27;20080;-77
2020/12/13 04:34:50;;;;;;;35.42;18.88;;;;;;;7.15;65.25;98541.00;5105267;28;20098;-77
2020/12/13 04:37:17;;;;;;;45.75;17.95;;;;;;;7.26;64.88;98533.94;5101667;28;20441;-77
2020/12/13 04:39:43;;;;;;;37.88;19.27;;;;;;;7.34;64.31;98537.31;5104153;28;20039;-78
2020/12/13 04:42:12;;;;;;;44.20;20.83;;;;;;;7.25;64.47;98535.69;5120052;27;20485;-76
2020/12/13 04:44:39;;;;;;;45.20;21.70;;;;;;;7.23;64.62;98528.81;5099309;28;20031;-78
2020/12/13 04:47:07;;;;;;;44.60;21.40;;;;;;;7.11;64.92;98516.81;5104268;27;20349;-76
2020/12/13 04:49:39;;;;;;;51.10;21.58;;;;;;;6.72;66.20;98512.09;5125764;28;20114;-77
2020/12/13 04:52:05;;;;;;;49.45;20.73;;;;;;;6.81;66.22;98517.22;5110954;28;20035;-75
2020/12/13 04:54:31;;;;;;;39.33;20.25;;;;;;;7.08;64.95;98524.66;5102655;28;20043;-76
2020/12/13 04:56:58;;;;;;;35.80;18.90;;;;;;;6.92;65.68;98521.38;5104582;28;20068;-76
2020/12/13 04:59:25;;;;;;;45.40;19.77;;;;;;;7.00;65.32;98519.53;5118013;27;20027;-76
2020/12/13 05:01:57;;;;;;;38.47;19.05;;;;;;;6.66;66.26;98526.03;5104463;28;20038;-76
2020/12/13 05:04:23;;;;;;;45.55;19.27;;;;;;;6.62;67.10;98524.31;5097999;28;20043;-76
2020/12/13 05:06:49;;;;;;;44.60;20.73;;;;;;;6.92;66.18;98523.13;5104049;28;20070;-76
2020/12/13 05:09:15;;;;;;;36.15;18.92;;;;;;;6.83;66.29;98520.63;5103083;28;20063;-77
2020/12/13 05:11:47;;;;;;;37.80;19.10;;;;;;;6.73;66.29;98517.28;5124163;28;20043;-77
2020/12/13 05:14:13;;;;;;;46.78;21.55;;;;;;;6.44;67.51;98512.38;5116663;27;20049;-77
2020/12/13 05:16:42;;;;;;;44.38;20.75;;;;;;;6.08;68.58;98504.97;5123125;27;20035;-78
2020/12/13 05:19:08;;;;;;;38.55;18.98;;;;;;;6.05;68.58;98499.78;5115520;28;20034;-75
2020/12/13 05:21:36;;;;;;;47.65;21.48;;;;;;;6.09;68.82;98498.91;5116902;27;20031;-77
2020/12/13 05:24:09;;;;;;;46.53;21.83;;;;;;;6.36;68.10;98496.06;5134820;27;20028;-77
2020/12/13 05:26:34;;;;;;;49.85;20.75;;;;;;;6.36;67.43;98498.66;5118033;28;20043;-76
2020/12/13 05:29:04;;;;;;;42.20;20.45;;;;;;;6.32;67.83;98504.75;5102007;27;20109;-76
2020/12/13 05:31:31;;;;;;;44.88;20.83;;;;;;;6.48;67.27;98501.09;5103615;28;20051;-76
2020/12/13 05:34:06;;;;;;;38.42;19.88;;;;;;;6.40;67.69;98489.94;5114831;27;20042;-77
2020/12/13 05:36:37;;;;;;;46.08;20.50;;;;;;;6.43;67.50;98487.31;5124296;28;20490;-75
2020/12/13 05:39:04;;;;;;;50.72;19.10;;;;;;;6.61;67.02;98486.28;5116613;27;20041;-76
2020/12/13 05:41:37;;;;;;;41.17;19.90;;;;;;;7.08;66.13;98497.84;5104121;27;20031;-76
2020/12/13 05:45:07;;;;;;;40.30;19.63;;;;;;;6.98;65.92;98490.16;5122700;27;20142;-75
2020/12/13 05:47:41;;;;;;;39.47;19.58;;;;;;;7.19;65.64;98490.78;5108391;27;20137;-76
2020/12/13 05:52:20;;;;;;;39.72;16.98;;;;;;;7.32;65.32;98490.59;5122277;27;20057;-77
2020/12/13 05:54:47;;;;;;;35.00;16.38;;;;;;;7.14;65.60;98484.78;5123747;27;20050;-76
2020/12/13 05:57:13;;;;;;;41.63;18.17;;;;;;;7.34;64.87;98499.19;5125142;27;20843;-77
2020/12/13 05:59:39;;;;;;;28.73;15.38;;;;;;;7.21;65.11;98487.25;5107060;27;20113;-77
2020/12/13 06:02:10;;;;;;;33.42;15.38;;;;;;;7.34;65.44;98487.94;5116371;27;20141;-77
2020/12/13 06:04:41;;;;;;;32.22;13.43;;;;;;;7.19;65.81;98488.19;5104773;27;20071;-78
2020/12/13 06:07:11;;;;;;;29.00;14.45;;;;;;;7.27;65.83;98482.00;5126609;27;20046;-77
2020/12/13 06:09:40;;;;;;;33.08;15.13;;;;;;;7.19;66.10;98478.66;5126924;27;20035;-76
2020/12/13 06:12:08;;;;;;;27.92;13.40;;;;;;;7.24;66.30;98478.59;5119581;27;20141;-76
2020/12/13 06:14:36;;;;;;;29.27;14.00;;;;;;;7.14;66.73;98479.59;5123484;27;20036;-77
2020/12/13 06:17:04;;;;;;;30.20;14.45;;;;;;;7.00;67.04;98479.78;5104100;27;20758;-77
2020/12/13 06:19:32;;;;;;;40.15;14.90;;;;;;;6.62;68.34;98459.44;5108536;27;20042;-76
2020/12/13 06:22:03;;;;;;;38.55;15.00;;;;;;;6.82;67.65;98459.19;5124117;27;20035;-78
2020/12/13 06:24:30;;;;;;;31.50;13.68;;;;;;;6.64;68.28;98456.81;5126199;27;20118;-77
2020/12/13 06:26:57;;;;;;;30.95;14.05;;;;;;;6.73;68.38;98461.91;5102441;27;20039;-77
2020/12/13 06:29:26;;;;;;;37.10;14.32;;;;;;;6.73;68.20;98459.31;5104385;27;20035;-75
2020/12/13 06:31:53;;;;;;;26.33;13.88;;;;;;;6.73;67.84;98456.72;5103721;27;20031;-74
2020/12/13 06:34:19;;;;;;;28.65;13.55;;;;;;;6.74;68.59;98448.06;5125638;27;20393;-74
2020/12/13 06:36:45;;;;;;;33.45;15.23;;;;;;;6.97;67.75;98453.81;5121336;27;20027;-76
2020/12/13 06:39:14;;;;;;;33.78;14.68;;;;;;;7.16;67.24;98449.25;5121600;27;20096;-75
2020/12/13 06:41:50;;;;;;;32.22;14.63;;;;;;;7.04;67.01;98450.28;5119074;27;20045;-76
2020/12/13 06:44:17;;;;;;;28.55;14.90;;;;;;;7.14;66.72;98441.50;5123402;27;20041;-76
2020/12/13 06:46:45;;;;;;;32.90;16.33;;;;;;;7.12;67.04;98424.19;5122096;27;20046;-77
2020/12/13 06:49:13;;;;;;;31.85;14.88;;;;;;;6.81;67.70;98437.56;5119736;27;20497;-76
2020/12/13 06:51:41;;;;;;;32.30;15.05;;;;;;;6.83;67.93;98435.81;5105971;27;20508;-76
2020/12/13 06:54:11;;;;;;;31.98;14.32;;;;;;;7.11;66.95;98438.06;5120358;27;20047;-75
2020/12/13 06:56:40;;;;;;;34.65;14.10;;;;;;;6.99;67.63;98437.34;5107038;28;20047;-77
2020/12/13 06:59:07;;;;;;;34.92;13.93;;;;;;;7.19;67.24;98424.09;5119802;27;20042;-76
2020/12/13 07:01:37;;;;;;;33.53;14.05;;;;;;;7.38;66.54;98440.28;5130070;27;20027;-77
2020/12/13 07:04:49;;;;;;;29.17;14.50;;;;;;;7.43;66.20;98441.06;5121206;27;20467;-76
2020/12/13 07:07:25;;;;;;;29.90;13.75;;;;;;;7.52;66.47;98448.72;5047967;28;20115;-76
2020/12/13 07:09:52;;;;;;;37.65;13.55;;;;;;;7.70;65.63;98443.25;5076643;28;20074;-77
2020/12/13 07:12:18;;;;;;;31.88;13.63;;;;;;;7.76;65.46;98448.34;5079236;28;20448;-78
2020/12/13 07:14:44;;;;;;;40.15;14.07;;;;;;;7.87;64.80;98443.81;5044905;28;20035;-75
2020/12/13 07:17:16;;;;;;;37.95;12.82;;;;;;;7.57;66.13;98436.53;5070236;28;20048;-77
2020/12/13 07:19:41;;;;;;;26.57;14.23;;;;;;;7.68;65.98;98441.53;5046351;28;20395;-78
2020/12/13 07:22:11;;;;;;;31.00;12.45;;;;;;;7.57;66.07;98430.47;5066672;28;20048;-77
2020/12/13 07:24:37;;;;;;;30.45;12.45;;;;;;;7.47;66.34;98436.69;5063079;28;20035;-76
2020/12/13 07:27:04;;;;;;;30.65;12.73;;;;;;;7.55;65.71;98427.03;5065360;28;20036;-78
2020/12/13 07:29:34;;;;;;;32.97;12.75;;;;;;;7.03;67.02;98430.38;5065134;28;20044;-77
2020/12/13 07:32:01;;;;;;;29.40;12.63;;;;;;;7.15;67.36;98427.59;5064890;28;20165;-76
2020/12/13 07:34:27;;;;;;;34.13;13.55;;;;;;;7.22;66.90;98423.19;5046417;28;20155;-77
2020/12/13 07:36:53;;;;;;;27.80;14.75;;;;;;;7.01;67.48;98411.34;5065309;28;20139;-77
2020/12/13 07:39:19;;;;;;;31.80;13.05;;;;;;;7.18;66.99;98413.72;5048281;28;20150;-77
2020/12/13 07:41:47;;;;;;;25.95;12.93;;;;;;;6.93;67.83;98405.41;5091696;27;20039;-77
2020/12/13 07:44:15;;;;;;;30.58;12.90;;;;;;;6.78;68.19;98408.22;5125287;27;20027;-79
2020/12/13 07:46:43;;;;;;;26.75;12.48;;;;;;;6.69;68.97;98400.53;5107446;27;20099;-77
2020/12/13 07:49:28;;;;;;;40.45;14.55;;;;;;;6.57;69.27;98398.94;5107294;27;20063;-77
2020/12/13 07:51:56;;;;;;;28.00;12.35;;;;;;;6.40;69.82;98393.13;5103191;27;20144;-78
2020/12/13 07:54:25;;;;;;;33.33;15.30;;;;;;;6.38;70.26;98392.28;5121459;27;20135;-77
2020/12/13 07:56:53;;;;;;;31.20;14.90;;;;;;;6.49;70.15;98395.59;5121693;27;20088;-78
2020/12/13 07:59:28;;;;;;;34.60;15.48;;;;;;;6.44;70.30;98389.59;5108420;27;20057;-78
2020/12/13 08:01:55;;;;;;;30.85;16.85;;;;;;;6.51;70.20;98379.16;5123713;27;20039;-78
2020/12/13 08:04:41;;;;;;;41.22;16.90;;;;;;;6.53;70.07;98381.69;5106307;27;20032;-79
2020/12/13 08:07:12;;;;;;;38.30;16.45;;;;;;;6.63;69.88;98374.66;5124199;27;20034;-78
2020/12/13 08:09:41;;;;;;;36.67;16.43;;;;;;;6.58;69.99;98366.94;5103083;28;20045;-79
2020/12/13 08:12:11;;;;;;;37.55;17.55;;;;;;;6.81;69.46;98357.09;5093801;27;20295;-80
2020/12/13 08:14:37;;;;;;;39.92;16.88;;;;;;;6.61;69.93;98342.72;5130500;27;20035;-78
2020/12/13 08:17:04;;;;;;;44.08;16.73;;;;;;;6.67;70.24;98335.69;5086077;28;20189;-79
2020/12/13 08:19:49;;;;;;;33.88;16.45;;;;;;;6.76;69.76;98329.53;5069887;28;20462;-78
2020/12/13 08:22:24;;;;;;;43.78;17.75;;;;;;;6.84;69.98;98322.47;5086550;28;20043;-80
2020/12/13 08:24:59;;;;;;;34.58;15.50;;;;;;;6.85;69.84;98319.88;5104719;28;20024;-79
2020/12/13 08:27:28;;;;;;;30.52;15.75;;;;;;;7.02;69.38;98314.41;5087169;28;20031;-80
2020/12/13 08:29:54;;;;;;;40.83;16.85;;;;;;;6.97;69.38;98306.69;5105215;28;20039;-79
2020/12/13 08:32:32;;;;;;;31.55;16.63;;;;;;;7.17;69.50;98308.13;5070442;28;20090;-80
2020/12/13 08:35:15;;;;;;;34.88;15.82;;;;;;;7.15;69.56;98309.88;5070747;28;20046;-79
2020/12/13 08:37:51;;;;;;;37.72;16.92;;;;;;;6.97;70.15;98313.63;5101901;28;20395;-80
2020/12/13 08:40:33;;;;;;;35.35;15.77;;;;;;;6.99;70.43;98304.94;5089898;28;20155;-81
2020/12/13 08:42:59;;;;;;;29.83;15.73;;;;;;;6.65;71.25;98298.53;5071155;28;20031;-79
2020/12/13 08:45:25;;;;;;;38.05;15.32;;;;;;;6.79;71.57;98299.19;5071919;28;20074;-81
2020/12/13 08:47:51;;;;;;;30.65;14.82;;;;;;;6.85;71.18;98295.66;5089850;28;20039;-79
2020/12/13 08:50:19;;;;;;;32.85;13.90;;;;;;;6.91;71.60;98296.41;5086396;28;20070;-80
2020/12/13 08:52:46;;;;;;;28.73;13.65;;;;;;;6.98;71.35;98294.56;5087105;28;20052;-79
2020/12/13 08:55:13;;;;;;;42.92;12.00;;;;;;;6.94;72.00;98282.53;5101126;28;20050;-80
2020/12/13 08:57:45;;;;;;;27.85;12.23;;;;;;;6.84;72.30;98280.94;5126211;27;20023;-80
2020/12/13 09:00:14;;;;;;;37.58;11.20;;;;;;;7.21;71.34;98269.09;5091227;28;20046;-81
2020/12/13 09:02:53;;;;;;;27.00;9.32;;;;;;;6.53;73.77;98270.16;5114930;28;20541;-77
2020/12/13 09:05:25;;;;;;;24.00;7.55;;;;;;;6.64;73.56;98275.19;5122020;28;20759;-77
2020/12/13 09:07:53;;;;;;;31.10;7.70;;;;;;;6.62;73.90;98272.59;5120378;27;20035;-78
2020/12/13 09:10:20;;;;;;;29.83;7.75;;;;;;;6.61;74.17;98270.91;5121900;28;20030;-78
2020/12/13 09:12:47;;;;;;;28.02;7.30;;;;;;;6.49;73.93;98269.34;5106732;28;20386;-77
2020/12/13 09:15:24;;;;;;;25.55;9.18;;;;;;;6.87;73.23;98263.59;5107513;27;20008;-79
2020/12/13 09:17:55;;;;;;;24.48;9.30;;;;;;;6.78;73.56;98244.69;5104472;27;20108;-79
2020/12/13 09:20:29;;;;;;;21.75;9.82;;;;;;;6.43;74.24;98230.50;5123853;27;20043;-80
2020/12/13 09:23:19;;;;;;;25.30;9.38;;;;;;;6.65;73.98;98238.00;5125468;27;20023;-79
2020/12/13 09:25:47;;;;;;;26.63;9.80;;;;;;;6.53;74.28;98239.88;5122902;27;20031;-80
2020/12/13 09:28:15;;;;;;;25.30;10.20;;;;;;;6.64;73.29;98249.25;5109324;27;20091;-78
2020/12/13 09:30:42;;;;;;;19.80;9.52;;;;;;;6.73;73.69;98243.91;5107388;27;20094;-79
2020/12/13 09:33:09;;;;;;;19.73;8.80;;;;;;;6.72;73.63;98235.25;5123545;27;20034;-79
2020/12/13 09:35:35;;;;;;;31.88;10.43;;;;;;;6.64;73.97;98236.25;5122836;27;20099;-77
2020/12/13 09:38:03;;;;;;;25.55;10.35;;;;;;;6.75;74.04;98229.19;5110370;27;20197;-80
2020/12/13 09:40:30;;;;;;;28.25;9.98;;;;;;;6.86;73.23;98228.13;5110838;27;20039;-78
2020/12/13 09:42:56;;;;;;;31.55;9.40;;;;;;;6.66;74.30;98234.53;5129070;27;20035;-79
2020/12/13 09:45:22;;;;;;;29.15;11.18;;;;;;;7.08;73.26;98222.59;5108950;27;20030;-78
2020/12/13 09:47:49;;;;;;;33.08;10.52;;;;;;;7.03;73.67;98232.19;5132688;27;20031;-79
2020/12/13 09:50:18;;;;;;;28.35;10.23;;;;;;;7.04;73.21;98226.97;5124868;27;20050;-78
2020/12/13 09:52:44;;;;;;;22.70;8.95;;;;;;;6.73;74.29;98220.56;5126157;27;20199;-81
2020/12/13 09:55:11;;;;;;;21.90;10.68;;;;;;;7.18;73.27;98213.75;5128008;27;20107;-82
2020/12/13 09:57:37;;;;;;;22.58;8.07;;;;;;;7.12;73.02;98201.72;5125087;27;20034;-79
2020/12/13 10:00:04;;;;;;;26.27;8.30;;;;;;;7.46;72.12;98204.56;5120641;27;20023;-80
2020/12/13 10:02:30;;;;;;;27.88;8.27;;;;;;;7.18;72.84;98203.38;5115191;27;20324;-79
2020/12/13 10:04:56;;;;;;;26.88;6.95;;;;;;;7.21;72.70;98203.28;5128264;27;20138;-78
2020/12/13 10:07:31;;;;;;;30.02;7.68;;;;;;;7.11;73.40;98204.34;5130831;27;20118;-78
2020/12/13 10:09:57;;;;;;;21.63;8.00;;;;;;;7.39;72.00;98202.97;5109415;27;20032;-78
2020/12/13 10:12:24;;;;;;;24.42;6.75;;;;;;;7.72;71.00;98198.88;5112302;27;20052;-78
2020/12/13 10:14:50;;;;;;;21.48;6.63;;;;;;;7.30;73.04;98203.13;5122601;27;20042;-79
2020/12/13 10:17:15;;;;;;;13.43;5.45;;;;;;;7.70;71.26;98192.84;5128770;27;20123;-79
2020/12/13 10:19:41;;;;;;;25.15;6.72;;;;;;;7.25;72.97;98195.41;5121328;27;20054;-78
2020/12/13 10:22:07;;;;;;;18.52;6.95;;;;;;;7.26;73.34;98191.09;5124605;27;20075;-79
2020/12/13 10:24:33;;;;;;;21.40;6.28;;;;;;;7.11;73.94;98179.22;5126060;27;20035;-79
2020/12/13 10:26:58;;;;;;;29.60;6.38;;;;;;;7.56;73.32;98169.72;5127204;27;20027;-79
2020/12/13 10:29:24;;;;;;;18.10;5.63;;;;;;;7.73;72.86;98171.97;5110105;27;20031;-79
2020/12/13 10:31:50;;;;;;;20.67;6.35;;;;;;;8.01;72.19;98175.72;5120398;27;20059;-78
2020/12/13 10:34:16;;;;;;;26.20;5.90;;;;;;;7.45;73.75;98179.47;5130865;27;20031;-79
2020/12/13 10:36:42;;;;;;;27.45;6.18;;;;;;;7.53;73.74;98166.34;5104912;27;20039;-80
2020/12/13 10:39:19;;;;;;;20.00;7.10;;;;;;;8.13;72.42;98156.41;5128365;27;20027;-79
2020/12/13 10:41:46;;;;;;;30.45;6.72;;;;;;;7.66;73.46;98154.81;5109881;27;20031;-79
2020/12/13 10:44:14;;;;;;;23.00;6.70;;;;;;;7.61;74.53;98143.66;5127078;27;20130;-79
2020/12/13 10:46:40;;;;;;;40.22;6.97;;;;;;;7.91;73.32;98131.75;5125901;27;20053;-78
2020/12/13 10:49:05;;;;;;;34.90;6.72;;;;;;;7.81;73.77;98120.69;5128104;27;20313;-80
2020/12/13 10:51:31;;;;;;;24.80;6.85;;;;;;;7.79;74.43;98115.53;5127007;27;20031;-80
2020/12/13 10:53:57;;;;;;;33.00;7.22;;;;;;;7.93;73.83;98101.38;5109619;27;20077;-80
2020/12/13 10:56:23;;;;;;;20.35;5.55;;;;;;;7.54;75.45;98110.88;5125410;27;20057;-80
2020/12/13 10:58:48;;;;;;;21.45;6.05;;;;;;;7.83;74.47;98106.78;5109423;27;20116;-79
2020/12/13 11:01:14;;;;;;;28.13;6.70;;;;;;;7.84;75.02;98089.44;5127291;27;20440;-80
2020/12/13 11:03:40;;;;;;;24.35;6.45;;;;;;;7.78;75.59;98086.94;5108367;27;20100;-80
2020/12/13 11:06:10;;;;;;;39.78;7.25;;;;;;;7.92;75.25;98071.03;5108822;27;20034;-80
2020/12/13 11:08:36;;;;;;;19.15;7.20;;;;;;;7.70;75.79;98068.94;5122472;27;20332;-80
2020/12/13 11:11:02;;;;;;;17.45;6.85;;;;;;;7.68;76.56;98062.06;5130536;27;20027;-81
2020/12/13 11:13:28;;;;;;;29.20;8.13;;;;;;;7.66;77.04;98048.25;5102942;27;20089;-79
2020/12/13 11:15:53;;;;;;;24.27;7.30;;;;;;;7.75;76.64;98046.31;5108615;27;20036;-78
2020/12/13 11:18:19;;;;;;;24.27;7.15;;;;;;;7.82;76.45;98037.47;5124000;27;20171;-79
2020/12/13 11:20:46;;;;;;;21.50;7.30;;;;;;;7.48;77.66;98015.75;5118353;27;20028;-78
2020/12/13 11:23:12;;;;;;;18.75;7.35;;;;;;;7.50;77.77;98021.75;5080770;28;20470;-78
2020/12/13 11:25:38;;;;;;;22.70;6.07;;;;;;;7.68;77.33;97997.06;5083860;28;20091;-77
2020/12/13 11:28:05;;;;;;;20.92;6.40;;;;;;;7.75;77.05;97996.91;5067149;28;20049;-78
2020/12/13 11:30:32;;;;;;;20.58;7.68;;;;;;;8.06;76.33;97993.56;5046973;28;20536;-78
2020/12/13 11:32:58;;;;;;;18.52;7.75;;;;;;;8.08;75.61;97976.19;5066564;28;20036;-78
2020/12/13 11:35:23;;;;;;;23.00;8.75;;;;;;;7.98;75.93;97956.50;5083662;28;20124;-79
2020/12/13 11:37:50;;;;;;;26.42;7.85;;;;;;;8.01;76.18;97951.25;5053178;28;20471;-78